Menu Horizontal
luftaufnahme
Willkommen auf der Webseite der privaten Wetterstation -- Taufkirchen an der Pram -- 48°24'29,52" Nord  <>  13°32'13,20" Ost

Wetterdaten - Mittwoch, 29.01.2020 - Taufkirchen an der Pram     336 m über NN
Wetterdaten: aktuell Mittwoch, 29.01.2020 22:10
Datum Zeit Temp. A. Feuchte A. Luftdruck Regen Wind Sonnenschein UV Solar Windchill Empfang
29.01.2020 22:10 1,5 °C 93 % 1017,3 hPa 0,0 l/m² 0,6 km/h 0 min 0,0 UV-I 0 W/m² 1,5 °C 99 %
29.01.2020 22:00 1,6 °C 93 % 1017,1 hPa 0,0 l/m² 1,2 km/h 0 min 0,0 UV-I 0 W/m² 1,6 °C 100 %
29.01.2020 21:50 1,6 °C 93 % 1016,8 hPa 0,2 l/m² 6,9 km/h 0 min 0,0 UV-I 0 W/m² 1,1 °C 100 %
29.01.2020 21:40 1,6 °C 93 % 1016,7 hPa 0,0 l/m² 11,0 km/h 0 min 0,0 UV-I 0 W/m² -2,4 °C 100 %
29.01.2020 21:30 2,0 °C 93 % 1016,9 hPa 0,2 l/m² 15,9 km/h 0 min 0,0 UV-I 0 W/m² -5,1 °C 99 %
29.01.2020 21:20 2,2 °C 93 % 1016,5 hPa 0,0 l/m² 9,7 km/h 0 min 0,0 UV-I 0 W/m² -0,8 °C 100 %
29.01.2020 21:10 2,0 °C 93 % 1016,3 hPa 0,2 l/m² 0,1 km/h 0 min 0,0 UV-I 0 W/m² 2,0 °C 100 %
29.01.2020 21:00 2,1 °C 93 % 1016,0 hPa 0,0 l/m² 0,0 km/h 0 min 0,0 UV-I 0 W/m² 2,1 °C 100 %
29.01.2020 20:50 2,1 °C 92 % 1015,9 hPa 0,0 l/m² 0,0 km/h 0 min 0,0 UV-I 0 W/m² 2,1 °C 100 %
29.01.2020 20:40 2,1 °C 92 % 1015,8 hPa 0,0 l/m² 0,0 km/h 0 min 0,0 UV-I 0 W/m² 2,1 °C 99 %
29.01.2020 20:30 2,2 °C 93 % 1015,5 hPa 0,0 l/m² 0,0 km/h 0 min 0,0 UV-I 0 W/m² 2,2 °C 99 %
29.01.2020 20:20 2,2 °C 92 % 1015,4 hPa 0,0 l/m² 0,2 km/h 0 min 0,0 UV-I 0 W/m² 2,2 °C 100 %
29.01.2020 20:10 2,3 °C 93 % 1015,3 hPa 0,0 l/m² 2,8 km/h 0 min 0,0 UV-I 0 W/m² 2,3 °C 100 %
29.01.2020 20:00 2,3 °C 93 % 1014,9 hPa 0,0 l/m² 4,7 km/h 0 min 0,0 UV-I 0 W/m² 2,3 °C 91 %
29.01.2020 19:50 2,2 °C 93 % 1014,9 hPa 0,0 l/m² 3,2 km/h 0 min 0,0 UV-I 0 W/m² 2,2 °C 100 %
29.01.2020 19:40 2,1 °C 93 % 1014,9 hPa 0,2 l/m² 3,1 km/h 0 min 0,0 UV-I 0 W/m² 2,1 °C 99 %
29.01.2020 19:30 1,9 °C 94 % 1014,5 hPa 0,0 l/m² 3,5 km/h 0 min 0,0 UV-I 0 W/m² 1,9 °C 100 %
29.01.2020 19:20 1,8 °C 94 % 1014,3 hPa 0,0 l/m² 1,0 km/h 0 min 0,0 UV-I 0 W/m² 1,8 °C 100 %
29.01.2020 19:10 1,7 °C 94 % 1014,1 hPa 0,0 l/m² 1,0 km/h 0 min 0,0 UV-I 0 W/m² 1,7 °C 91 %
29.01.2020 19:00 1,7 °C 94 % 1013,9 hPa 0,0 l/m² 1,1 km/h 0 min 0,0 UV-I 0 W/m² 1,7 °C 100 %
29.01.2020 18:50 1,6 °C 93 % 1013,8 hPa 0,0 l/m² 0,9 km/h 0 min 0,0 UV-I 0 W/m² 1,6 °C 100 %
29.01.2020 18:40 1,5 °C 93 % 1013,7 hPa 0,2 l/m² 0,1 km/h 0 min 0,0 UV-I 0 W/m² 1,5 °C 99 %
29.01.2020 18:30 1,5 °C 92 % 1013,9 hPa 0,0 l/m² 0,3 km/h 0 min 0,0 UV-I 0 W/m² 1,5 °C 97 %
29.01.2020 18:20 1,5 °C 92 % 1013,7 hPa 0,2 l/m² 2,6 km/h 0 min 0,0 UV-I 0 W/m² 1,5 °C 100 %
29.01.2020 18:10 1,7 °C 91 % 1013,6 hPa 0,0 l/m² 0,8 km/h 0 min 0,0 UV-I 0 W/m² 1,7 °C 100 %
29.01.2020 18:00 1,9 °C 89 % 1013,4 hPa 0,2 l/m² 2,8 km/h 0 min 0,0 UV-I 0 W/m² 1,9 °C 100 %
29.01.2020 17:50 2,6 °C 88 % 1013,5 hPa 0,6 l/m² 9,1 km/h 0 min 0,0 UV-I 0 W/m² 0,1 °C 100 %
29.01.2020 17:40 3,4 °C 88 % 1013,0 hPa 0,4 l/m² 5,3 km/h 0 min 0,0 UV-I 0 W/m² 3,4 °C 100 %
29.01.2020 17:30 3,4 °C 87 % 1012,6 hPa 0,0 l/m² 0,9 km/h 0 min 0,0 UV-I 0 W/m² 3,4 °C 100 %
29.01.2020 17:20 3,5 °C 87 % 1012,3 hPa 0,0 l/m² 4,9 km/h 0 min 0,0 UV-I 0 W/m² 3,5 °C 100 %
29.01.2020 17:10 3,6 °C 86 % 1012,5 hPa 0,2 l/m² 4,0 km/h 0 min 0,0 UV-I 0 W/m² 3,6 °C 99 %
29.01.2020 17:00 3,7 °C 84 % 1012,4 hPa 0,0 l/m² 0,4 km/h 0 min 0,0 UV-I 0 W/m² 3,7 °C 100 %
29.01.2020 16:50 3,8 °C 84 % 1012,3 hPa 0,0 l/m² 0,0 km/h 0 min 0,0 UV-I 7 W/m² 3,8 °C 100 %
29.01.2020 16:40 3,9 °C 82 % 1012,3 hPa 0,0 l/m² 1,4 km/h 0 min 0,0 UV-I 7 W/m² 3,9 °C 91 %
29.01.2020 16:30 4,1 °C 81 % 1012,5 hPa 0,0 l/m² 1,6 km/h 0 min 0,0 UV-I 6 W/m² 4,1 °C 100 %
29.01.2020 16:20 4,2 °C 79 % 1012,3 hPa 0,0 l/m² 2,0 km/h 0 min 0,0 UV-I 16 W/m² 4,2 °C 100 %
29.01.2020 16:10 4,3 °C 79 % 1012,4 hPa 0,0 l/m² 1,9 km/h 0 min 0,0 UV-I 16 W/m² 4,3 °C 99 %
29.01.2020 16:00 4,3 °C 79 % 1012,4 hPa 0,0 l/m² 2,6 km/h 0 min 0,0 UV-I 22 W/m² 4,3 °C 100 %
29.01.2020 15:50 4,3 °C 80 % 1012,3 hPa 0,0 l/m² 0,1 km/h 0 min 0,0 UV-I 20 W/m² 4,3 °C 98 %
29.01.2020 15:40 4,3 °C 80 % 1012,2 hPa 0,0 l/m² 1,1 km/h 0 min 0,0 UV-I 32 W/m² 4,3 °C 92 %
29.01.2020 15:30 4,3 °C 80 % 1012,2 hPa 0,0 l/m² 0,5 km/h 0 min 0,0 UV-I 29 W/m² 4,3 °C 100 %
29.01.2020 15:20 4,2 °C 81 % 1012,1 hPa 0,0 l/m² 1,3 km/h 0 min 0,0 UV-I 41 W/m² 4,2 °C 100 %
29.01.2020 15:10 4,2 °C 82 % 1012,2 hPa 0,0 l/m² 0,4 km/h 0 min 0,0 UV-I 43 W/m² 4,2 °C 99 %
29.01.2020 15:00 4,2 °C 82 % 1012,2 hPa 0,0 l/m² 0,3 km/h 0 min 0,0 UV-I 41 W/m² 4,2 °C 99 %
29.01.2020 14:50 4,2 °C 82 % 1012,1 hPa 0,0 l/m² 0,0 km/h 0 min 0,0 UV-I 30 W/m² 4,2 °C 100 %
29.01.2020 14:40 4,3 °C 82 % 1012,1 hPa 0,0 l/m² 0,0 km/h 0 min 0,0 UV-I 24 W/m² 4,3 °C 100 %
29.01.2020 14:30 4,3 °C 81 % 1012,0 hPa 0,0 l/m² 0,8 km/h 0 min 0,0 UV-I 35 W/m² 4,3 °C 100 %
29.01.2020 14:20 4,3 °C 82 % 1011,9 hPa 0,0 l/m² 0,6 km/h 0 min 0,1 UV-I 52 W/m² 4,3 °C 100 %
29.01.2020 14:10 4,3 °C 81 % 1011,8 hPa 0,0 l/m² 0,8 km/h 0 min 0,5 UV-I 67 W/m² 4,3 °C 100 %
29.01.2020 14:00 4,3 °C 81 % 1011,8 hPa 0,0 l/m² 1,6 km/h 0 min 0,4 UV-I 70 W/m² 4,3 °C 100 %
29.01.2020 13:50 4,3 °C 81 % 1011,7 hPa 0,0 l/m² 1,4 km/h 0 min 0,2 UV-I 58 W/m² 4,3 °C 100 %
29.01.2020 13:40 4,3 °C 81 % 1011,8 hPa 0,0 l/m² 1,5 km/h 0 min 0,6 UV-I 101 W/m² 4,3 °C 100 %
29.01.2020 13:30 4,3 °C 82 % 1012,0 hPa 0,0 l/m² 1,3 km/h 10 min 0,7 UV-I 127 W/m² 4,3 °C 100 %
29.01.2020 13:20 4,1 °C 81 % 1012,0 hPa 0,0 l/m² 3,6 km/h 10 min 0,7 UV-I 140 W/m² 4,1 °C 100 %
29.01.2020 13:10 4,0 °C 82 % 1011,9 hPa 0,0 l/m² 3,8 km/h 10 min 0,7 UV-I 130 W/m² 4,0 °C 100 %
29.01.2020 13:00 3,9 °C 82 % 1012,1 hPa 0,0 l/m² 5,4 km/h 10 min 0,7 UV-I 118 W/m² 3,9 °C 100 %
29.01.2020 12:50 3,7 °C 82 % 1012,2 hPa 0,0 l/m² 4,8 km/h 0 min 0,6 UV-I 91 W/m² 3,7 °C 100 %
29.01.2020 12:40 3,7 °C 82 % 1012,4 hPa 0,0 l/m² 5,2 km/h 0 min 0,7 UV-I 94 W/m² 3,7 °C 91 %
29.01.2020 12:30 3,6 °C 83 % 1012,3 hPa 0,0 l/m² 4,9 km/h 0 min 0,6 UV-I 95 W/m² 3,6 °C 100 %
29.01.2020 12:20 3,4 °C 84 % 1012,2 hPa 0,0 l/m² 5,0 km/h 10 min 0,7 UV-I 103 W/m² 3,4 °C 100 %
29.01.2020 12:10 3,4 °C 84 % 1012,0 hPa 0,0 l/m² 5,6 km/h 0 min 0,6 UV-I 95 W/m² 3,4 °C 100 %
29.01.2020 12:00 3,3 °C 84 % 1012,1 hPa 0,0 l/m² 6,4 km/h 0 min 0,6 UV-I 80 W/m² 3,3 °C 100 %
29.01.2020 11:50 3,3 °C 84 % 1012,1 hPa 0,2 l/m² 6,9 km/h 0 min 0,6 UV-I 81 W/m² 2,8 °C 100 %
29.01.2020 11:40 3,3 °C 85 % 1012,2 hPa 0,0 l/m² 7,3 km/h 10 min 0,7 UV-I 116 W/m² 2,5 °C 100 %
29.01.2020 11:30 3,3 °C 85 % 1012,3 hPa 0,0 l/m² 6,6 km/h 10 min 0,7 UV-I 125 W/m² 3,1 °C 100 %
29.01.2020 11:20 3,2 °C 85 % 1012,3 hPa 0,0 l/m² 5,7 km/h 10 min 0,7 UV-I 108 W/m² 3,2 °C 100 %
29.01.2020 11:10 3,2 °C 85 % 1012,4 hPa 0,0 l/m² 3,7 km/h 0 min 0,6 UV-I 87 W/m² 3,2 °C 100 %
29.01.2020 11:00 3,2 °C 85 % 1012,2 hPa 0,0 l/m² 4,7 km/h 0 min 0,6 UV-I 95 W/m² 3,2 °C 99 %
29.01.2020 10:50 3,2 °C 85 % 1012,1 hPa 0,0 l/m² 3,2 km/h 0 min 0,6 UV-I 95 W/m² 3,2 °C 91 %
29.01.2020 10:40 3,2 °C 85 % 1012,0 hPa 0,0 l/m² 3,0 km/h 10 min 0,7 UV-I 135 W/m² 3,2 °C 100 %
29.01.2020 10:30 3,1 °C 85 % 1012,0 hPa 0,2 l/m² 3,7 km/h 10 min 0,7 UV-I 117 W/m² 3,1 °C 100 %
29.01.2020 10:20 3,0 °C 86 % 1011,8 hPa 0,0 l/m² 5,9 km/h 10 min 0,6 UV-I 110 W/m² 3,0 °C 100 %
29.01.2020 10:10 2,9 °C 87 % 1011,7 hPa 0,0 l/m² 6,3 km/h 10 min 0,6 UV-I 110 W/m² 2,9 °C 100 %
29.01.2020 10:00 2,9 °C 88 % 1011,6 hPa 0,2 l/m² 5,7 km/h 10 min 0,6 UV-I 138 W/m² 2,9 °C 100 %
29.01.2020 09:50 2,9 °C 89 % 1011,5 hPa 0,2 l/m² 5,3 km/h 10 min 0,6 UV-I 183 W/m² 2,9 °C 92 %
29.01.2020 09:40 2,7 °C 90 % 1011,4 hPa 0,2 l/m² 3,8 km/h 10 min 0,6 UV-I 137 W/m² 2,7 °C 100 %
29.01.2020 09:30 2,6 °C 91 % 1011,3 hPa 0,0 l/m² 2,8 km/h 0 min 0,5 UV-I 81 W/m² 2,6 °C 100 %
29.01.2020 09:20 2,5 °C 91 % 1011,1 hPa 0,2 l/m² 2,7 km/h 0 min 0,3 UV-I 58 W/m² 2,5 °C 100 %
29.01.2020 09:10 2,5 °C 91 % 1011,1 hPa 0,2 l/m² 3,6 km/h 0 min 0,3 UV-I 68 W/m² 2,5 °C 99 %
29.01.2020 09:00 2,5 °C 91 % 1010,9 hPa 0,2 l/m² 4,3 km/h 0 min 0,0 UV-I 61 W/m² 2,5 °C 100 %
29.01.2020 08:50 2,4 °C 91 % 1010,8 hPa 0,2 l/m² 6,0 km/h 0 min 0,0 UV-I 53 W/m² 2,4 °C 100 %
29.01.2020 08:40 2,4 °C 92 % 1010,8 hPa 0,4 l/m² 7,0 km/h 0 min 0,0 UV-I 40 W/m² 1,8 °C 100 %
29.01.2020 08:30 2,4 °C 93 % 1010,6 hPa 0,2 l/m² 7,5 km/h 0 min 0,0 UV-I 29 W/m² 1,3 °C 100 %
29.01.2020 08:20 2,3 °C 94 % 1010,3 hPa 0,2 l/m² 6,9 km/h 0 min 0,0 UV-I 16 W/m² 1,8 °C 100 %
29.01.2020 08:10 2,2 °C 95 % 1010,1 hPa 0,2 l/m² 7,1 km/h 0 min 0,0 UV-I 10 W/m² 1,5 °C 100 %
29.01.2020 08:00 2,1 °C 95 % 1009,8 hPa 0,2 l/m² 7,8 km/h 0 min 0,0 UV-I 5 W/m² 0,7 °C 100 %
29.01.2020 07:50 2,0 °C 96 % 1009,6 hPa 0,2 l/m² 6,9 km/h 0 min 0,0 UV-I 0 W/m² 1,5 °C 100 %
29.01.2020 07:40 1,9 °C 96 % 1009,4 hPa 0,2 l/m² 4,6 km/h 0 min 0,0 UV-I 0 W/m² 1,9 °C 100 %
29.01.2020 07:30 1,9 °C 96 % 1009,0 hPa 0,4 l/m² 5,4 km/h 0 min 0,0 UV-I 0 W/m² 1,9 °C 99 %
29.01.2020 07:20 1,8 °C 96 % 1008,7 hPa 0,4 l/m² 5,0 km/h 0 min 0,0 UV-I 0 W/m² 1,8 °C 99 %
29.01.2020 07:10 1,8 °C 96 % 1008,4 hPa 0,2 l/m² 5,2 km/h 0 min 0,0 UV-I 0 W/m² 1,8 °C 100 %
29.01.2020 07:00 1,8 °C 96 % 1008,2 hPa 0,4 l/m² 7,0 km/h 0 min 0,0 UV-I 0 W/m² 1,2 °C 99 %
29.01.2020 06:50 1,8 °C 96 % 1008,0 hPa 0,2 l/m² 8,9 km/h 0 min 0,0 UV-I 0 W/m² -0,6 °C 100 %
29.01.2020 06:40 1,8 °C 96 % 1007,7 hPa 0,4 l/m² 11,6 km/h 0 min 0,0 UV-I 0 W/m² -2,7 °C 100 %
29.01.2020 06:30 1,7 °C 96 % 1007,2 hPa 0,4 l/m² 8,4 km/h 0 min 0,0 UV-I 0 W/m² -0,2 °C 99 %
29.01.2020 06:20 1,7 °C 97 % 1006,5 hPa 0,0 l/m² 5,0 km/h 0 min 0,0 UV-I 0 W/m² 1,7 °C 100 %
29.01.2020 06:10 1,1 °C 96 % 1006,3 hPa 0,0 l/m² 0,9 km/h 0 min 0,0 UV-I 0 W/m² 1,1 °C 100 %
29.01.2020 06:00 0,7 °C 96 % 1006,3 hPa 0,0 l/m² 0,5 km/h 0 min 0,0 UV-I 0 W/m² 0,7 °C 100 %
29.01.2020 05:50 0,7 °C 96 % 1006,2 hPa 0,0 l/m² 0,2 km/h 0 min 0,0 UV-I 0 W/m² 0,7 °C 100 %
29.01.2020 05:40 0,6 °C 96 % 1006,3 hPa 0,0 l/m² 0,0 km/h 0 min 0,0 UV-I 0 W/m² 0,6 °C 100 %
29.01.2020 05:30 0,6 °C 96 % 1006,4 hPa 0,0 l/m² 0,0 km/h 0 min 0,0 UV-I 0 W/m² 0,6 °C 99 %
29.01.2020 05:20 0,6 °C 96 % 1006,4 hPa 0,2 l/m² 0,0 km/h 0 min 0,0 UV-I 0 W/m² 0,6 °C 100 %
29.01.2020 05:10 0,6 °C 96 % 1006,5 hPa 0,0 l/m² 0,0 km/h 0 min 0,0 UV-I 0 W/m² 0,6 °C 100 %
29.01.2020 05:00 0,7 °C 96 % 1006,5 hPa 0,2 l/m² 0,0 km/h 0 min 0,0 UV-I 0 W/m² 0,7 °C 100 %
29.01.2020 04:50 0,8 °C 96 % 1006,5 hPa 0,0 l/m² 0,0 km/h 0 min 0,0 UV-I 0 W/m² 0,8 °C 99 %
29.01.2020 04:40 0,9 °C 96 % 1006,7 hPa 0,0 l/m² 0,0 km/h 0 min 0,0 UV-I 0 W/m² 0,9 °C 100 %
29.01.2020 04:30 1,0 °C 96 % 1006,7 hPa 0,0 l/m² 0,1 km/h 0 min 0,0 UV-I 0 W/m² 1,0 °C 99 %
29.01.2020 04:20 1,1 °C 96 % 1006,7 hPa 0,0 l/m² 1,6 km/h 0 min 0,0 UV-I 0 W/m² 1,1 °C 99 %
29.01.2020 04:10 1,2 °C 96 % 1006,3 hPa 0,2 l/m² 1,0 km/h 0 min 0,0 UV-I 0 W/m² 1,2 °C 100 %
29.01.2020 04:00 1,1 °C 96 % 1006,5 hPa 0,2 l/m² 1,9 km/h 0 min 0,0 UV-I 0 W/m² 1,1 °C 100 %
29.01.2020 03:50 0,9 °C 96 % 1006,5 hPa 0,0 l/m² 0,6 km/h 0 min 0,0 UV-I 0 W/m² 0,9 °C 100 %
29.01.2020 03:40 0,8 °C 96 % 1006,8 hPa 0,0 l/m² 0,0 km/h 0 min 0,0 UV-I 0 W/m² 0,8 °C 99 %
29.01.2020 03:30 0,9 °C 96 % 1006,7 hPa 0,0 l/m² 0,0 km/h 0 min 0,0 UV-I 0 W/m² 0,9 °C 100 %
29.01.2020 03:20 0,9 °C 96 % 1006,8 hPa 0,0 l/m² 0,0 km/h 0 min 0,0 UV-I 0 W/m² 0,9 °C 100 %
29.01.2020 03:10 0,8 °C 96 % 1006,8 hPa 0,0 l/m² 0,0 km/h 0 min 0,0 UV-I 0 W/m² 0,8 °C 100 %
29.01.2020 03:00 0,8 °C 96 % 1006,9 hPa 0,0 l/m² 0,0 km/h 0 min 0,0 UV-I 0 W/m² 0,8 °C 91 %
29.01.2020 02:50 0,8 °C 96 % 1006,9 hPa 0,0 l/m² 0,0 km/h 0 min 0,0 UV-I 0 W/m² 0,8 °C 99 %
29.01.2020 02:40 0,7 °C 96 % 1007,0 hPa 0,0 l/m² 0,0 km/h 0 min 0,0 UV-I 0 W/m² 0,7 °C 100 %
29.01.2020 02:30 0,7 °C 96 % 1007,1 hPa 0,0 l/m² 0,0 km/h 0 min 0,0 UV-I 0 W/m² 0,7 °C 100 %
29.01.2020 02:20 0,7 °C 96 % 1007,0 hPa 0,0 l/m² 0,0 km/h 0 min 0,0 UV-I 0 W/m² 0,7 °C 100 %
29.01.2020 02:10 0,7 °C 96 % 1007,2 hPa 0,0 l/m² 0,0 km/h 0 min 0,0 UV-I 0 W/m² 0,7 °C 91 %
29.01.2020 02:00 0,7 °C 96 % 1007,5 hPa 0,0 l/m² 0,0 km/h 0 min 0,0 UV-I 0 W/m² 0,7 °C 99 %
29.01.2020 01:50 0,8 °C 96 % 1007,7 hPa 0,0 l/m² 0,0 km/h 0 min 0,0 UV-I 0 W/m² 0,8 °C 99 %
29.01.2020 01:40 0,8 °C 95 % 1007,8 hPa 0,0 l/m² 0,0 km/h 0 min 0,0 UV-I 0 W/m² 0,8 °C 100 %
29.01.2020 01:30 0,9 °C 96 % 1007,9 hPa 0,0 l/m² 0,0 km/h 0 min 0,0 UV-I 0 W/m² 0,9 °C 100 %
29.01.2020 01:20 0,9 °C 96 % 1008,0 hPa 0,0 l/m² 0,0 km/h 0 min 0,0 UV-I 0 W/m² 0,9 °C 100 %
29.01.2020 01:10 1,0 °C 96 % 1008,1 hPa 0,0 l/m² 0,0 km/h 0 min 0,0 UV-I 0 W/m² 1,0 °C 100 %
29.01.2020 01:00 0,9 °C 96 % 1007,9 hPa 0,0 l/m² 0,0 km/h 0 min 0,0 UV-I 0 W/m² 0,9 °C 100 %
29.01.2020 00:50 0,9 °C 96 % 1008,2 hPa 0,0 l/m² 0,0 km/h 0 min 0,0 UV-I 0 W/m² 0,9 °C 100 %
29.01.2020 00:40 0,9 °C 95 % 1008,2 hPa 0,0 l/m² 0,0 km/h 0 min 0,0 UV-I 0 W/m² 0,9 °C 100 %
29.01.2020 00:30 1,0 °C 95 % 1008,2 hPa 0,0 l/m² 0,0 km/h 0 min 0,0 UV-I 0 W/m² 1,0 °C 99 %
29.01.2020 00:20 1,0 °C 95 % 1008,1 hPa 0,0 l/m² 0,0 km/h 0 min 0,0 UV-I 0 W/m² 1,0 °C 100 %
29.01.2020 00:10 1,1 °C 95 % 1008,2 hPa 0,0 l/m² 0,5 km/h 0 min 0,0 UV-I 0 W/m² 1,1 °C 99 %
29.01.2020 00:00 1,0 °C 95 % 1008,3 hPa 0,0 l/m² 2,4 km/h 0 min 0,0 UV-I 0 W/m² 1,0 °C 100 %
28.01.2020 23:50 1,0 °C 95 % 1008,3 hPa 0,2 l/m² 4,1 km/h 0 min 0,0 UV-I 0 W/m² 1,0 °C 100 %
28.01.2020 23:40 1,0 °C 95 % 1008,3 hPa 0,2 l/m² 5,7 km/h 0 min 0,0 UV-I 0 W/m² 1,0 °C 100 %
28.01.2020 23:30 1,0 °C 95 % 1008,3 hPa 0,0 l/m² 7,2 km/h 0 min 0,0 UV-I 0 W/m² 0,2 °C 100 %
28.01.2020 23:20 1,1 °C 94 % 1008,2 hPa 0,0 l/m² 8,6 km/h 0 min 0,0 UV-I 0 W/m² -1,0 °C 100 %
28.01.2020 23:10 1,1 °C 94 % 1008,0 hPa 0,0 l/m² 12,4 km/h 0 min 0,0 UV-I 0 W/m² -4,0 °C 99 %
28.01.2020 23:00 1,4 °C 92 % 1007,9 hPa 0,0 l/m² 13,1 km/h 0 min 0,0 UV-I 0 W/m² -4,1 °C 100 %
_ Min-Zeit 05:40 16:20 05:50 - 21:00 - - - 21:30 16:40
Minimum _ 0,6 °C 79 % 1006,2 hPa - 0,0 km/h - - - -5,1 °C 91 %
_ Max-Zeit 16:10 06:20 22:10 17:50 21:30 13:30 13:30 09:50 16:10 22:00
Maximum _ 4,3 °C 97 % 1017,3 hPa 0,6 l/m² 15,9 km/h
NW
10 min 0,7 UV-I 183 W/m² 4,3 °C 100 %
Durchschnitt _ 2,2 °C 91 % 1010,6 hPa #9,6 l/m² 3,7 km/h #2:30 h 0,6 UV-I 29 W/m² 1,5 °C 99 %